createdAt,value
2019-02-24T00:01:28.494Z,3.13
2019-02-24T00:07:23.453Z,2.42
2019-02-24T00:13:18.476Z,3.65
2019-02-24T00:19:13.528Z,2.76
2019-02-24T00:25:08.471Z,2.49
2019-02-24T00:31:03.448Z,2.73
2019-02-24T00:36:58.496Z,2.15
2019-02-24T00:42:53.477Z,2.89
2019-02-24T00:48:48.484Z,2.17
2019-02-24T00:54:43.558Z,2.44
2019-02-24T01:00:38.565Z,2.6
2019-02-24T01:06:33.531Z,2.71
2019-02-24T01:12:28.498Z,2.43
2019-02-24T01:18:23.520Z,2.05
2019-02-24T01:24:18.537Z,1.92
2019-02-24T01:30:13.585Z,2.26
2019-02-24T01:36:08.513Z,2.28
2019-02-24T01:42:03.526Z,2.15
2019-02-24T01:47:58.534Z,2.29
2019-02-24T01:53:53.533Z,2.31
2019-02-24T01:59:48.550Z,2.14
2019-02-24T02:05:43.580Z,2.29
2019-02-24T02:11:38.547Z,2.09
2019-02-24T02:17:33.569Z,2.05
2019-02-24T02:23:28.578Z,2.43
2019-02-24T02:29:23.576Z,2.21
2019-02-24T02:35:18.599Z,10.37
2019-02-24T02:41:13.581Z,2
2019-02-24T02:47:08.584Z,1.73
2019-02-24T02:53:03.592Z,1.95
2019-02-24T02:58:58.591Z,2.02
2019-02-24T03:04:53.598Z,2.41
2019-02-24T03:10:48.662Z,1.98
2019-02-24T03:16:43.604Z,1.99
2019-02-24T03:22:38.643Z,2.32
2019-02-24T03:28:33.610Z,2.2
2019-02-24T03:34:28.641Z,2.58
2019-02-24T03:40:23.659Z,2.79
2019-02-24T03:46:18.638Z,2.64
2019-02-24T03:52:13.628Z,2.66
2019-02-24T03:58:08.735Z,2.54
2019-02-24T04:04:03.696Z,2.39
2019-02-24T04:09:58.732Z,2.5
2019-02-24T04:15:53.664Z,2.74
2019-02-24T04:21:48.674Z,2.31
2019-02-24T04:27:43.674Z,2.62
2019-02-24T04:33:38.709Z,2.53
2019-02-24T04:39:33.686Z,3.1
2019-02-24T04:45:28.672Z,2.74
2019-02-24T04:51:23.703Z,3.24
2019-02-24T04:57:18.692Z,3.08
2019-02-24T05:03:13.705Z,2.61
2019-02-24T05:09:08.710Z,2.78
2019-02-24T05:15:03.748Z,2.75
2019-02-24T05:20:58.709Z,2.69
2019-02-24T05:26:53.723Z,3
2019-02-24T05:32:48.726Z,2.74
2019-02-24T05:38:43.736Z,2.86
2019-02-24T05:44:38.736Z,2.81
2019-02-24T05:50:33.745Z,3.18
2019-02-24T05:56:28.750Z,2.91
2019-02-24T06:02:23.759Z,2.91
2019-02-24T06:08:18.747Z,2.9
2019-02-24T06:14:13.767Z,3.1
2019-02-24T06:20:08.780Z,2.93
2019-02-24T06:26:03.759Z,3.07
2019-02-24T06:31:58.759Z,3.05
2019-02-24T06:37:53.804Z,3.1
2019-02-24T06:43:48.791Z,3.37
2019-02-24T06:49:43.785Z,2.89
2019-02-24T06:55:38.871Z,2.68
2019-02-24T07:01:33.806Z,2.91
2019-02-24T07:07:28.817Z,3.37
2019-02-24T07:13:23.800Z,2.86
2019-02-24T07:19:18.845Z,3.2
2019-02-24T07:25:13.851Z,2.88
2019-02-24T07:31:08.857Z,2.86
2019-02-24T07:37:12.543Z,2.92
2019-02-24T07:42:58.854Z,2.48
2019-02-24T07:48:53.872Z,3.01
2019-02-24T07:54:48.835Z,3.11
2019-02-24T08:00:43.857Z,3.35
2019-02-24T08:06:38.850Z,3.32
2019-02-24T08:12:33.871Z,2.92
2019-02-24T08:18:28.859Z,3.39
2019-02-24T08:24:23.880Z,3.91
2019-02-24T08:30:18.885Z,3.34
2019-02-24T08:36:13.851Z,3.07
2019-02-24T08:42:08.897Z,2.85
2019-02-24T08:48:03.915Z,2.92
2019-02-24T08:53:58.903Z,2.84
2019-02-24T08:59:53.966Z,2.91
2019-02-24T09:05:48.968Z,3.45
2019-02-24T09:11:43.980Z,2.68
2019-02-24T09:17:38.904Z,3.15
2019-02-24T09:23:33.926Z,2.53
2019-02-24T09:29:28.928Z,3.21
2019-02-24T09:35:23.916Z,2.71
2019-02-24T09:41:18.941Z,2.59
2019-02-24T09:47:13.996Z,2.54
2019-02-24T09:53:08.981Z,2.62
2019-02-24T09:59:03.936Z,2.48
2019-02-24T10:04:58.983Z,3.09
2019-02-24T10:10:53.944Z,2.99
2019-02-24T10:16:48.958Z,2.73
2019-02-24T10:22:43.972Z,2.73
2019-02-24T10:28:38.974Z,3.16
2019-02-24T10:34:33.971Z,2.41
2019-02-24T10:40:28.983Z,2.79
2019-02-24T10:46:23.976Z,2.65
2019-02-24T10:52:19.038Z,2.81
2019-02-24T10:58:14.054Z,2.87
2019-02-24T11:04:09.045Z,2.7
2019-02-24T11:10:04.084Z,2.47
2019-02-24T11:15:59.014Z,2.67
2019-02-24T11:21:54.007Z,2.46
2019-02-24T11:27:49.034Z,2.85
2019-02-24T11:33:44.023Z,2.7
2019-02-24T11:39:39.067Z,2.78
2019-02-24T11:45:34.023Z,2.45
2019-02-24T11:51:29.029Z,2.52
2019-02-24T11:57:24.050Z,2.42
2019-02-24T12:03:19.069Z,2.66
2019-02-24T12:09:14.055Z,2.96
2019-02-24T12:15:09.089Z,2.59
2019-02-24T12:21:04.079Z,2.68
2019-02-24T12:26:59.067Z,2.73
2019-02-24T12:32:54.092Z,2.56
2019-02-24T12:38:49.084Z,2.73
2019-02-24T12:44:44.119Z,3.13
2019-02-24T12:50:39.093Z,2.65
2019-02-24T12:56:34.101Z,2.66
2019-02-24T13:02:29.112Z,3.12
2019-02-24T13:08:24.164Z,3.17
2019-02-24T13:14:19.106Z,3.44
2019-02-24T13:20:14.149Z,3.08
2019-02-24T13:26:09.133Z,2.42
2019-02-24T13:32:04.159Z,2.41
2019-02-24T13:37:59.126Z,2.76
2019-02-24T13:43:54.151Z,3.1
2019-02-24T13:49:49.137Z,3.45
2019-02-24T13:55:44.168Z,3.81
2019-02-24T14:07:34.200Z,3.26
2019-02-24T14:13:29.179Z,2.87
2019-02-24T14:19:24.195Z,3.75
2019-02-24T14:25:19.188Z,3.09
2019-02-24T14:31:14.195Z,3.48
2019-02-24T14:43:04.213Z,2.96
2019-02-24T14:43:04.279Z,3.04
2019-02-24T14:48:59.207Z,3.47
2019-02-24T14:54:54.197Z,3.16
2019-02-24T15:00:49.210Z,3.54
2019-02-24T15:06:44.214Z,2.66
2019-02-24T15:12:39.311Z,3.5
2019-02-24T15:24:29.236Z,3.11
2019-02-24T15:24:29.324Z,3.13
2019-02-24T15:30:24.236Z,2.82
2019-02-24T15:36:19.230Z,3.05
2019-02-24T15:42:14.262Z,3.23
2019-02-24T15:48:09.248Z,2.97
2019-02-24T15:54:04.274Z,2.92
2019-02-24T15:59:59.275Z,2.65
2019-02-24T16:05:54.295Z,3.86
2019-02-24T16:11:49.276Z,3.37
2019-02-24T16:17:44.275Z,2.94
2019-02-24T16:23:39.318Z,3.14
2019-02-24T16:29:34.291Z,3.82
2019-02-24T16:35:29.312Z,4.08
2019-02-24T16:41:24.346Z,3.48
2019-02-24T16:47:19.367Z,3.27
2019-02-24T16:53:14.331Z,3.39
2019-02-24T16:59:09.326Z,3.97
2019-02-24T17:05:04.365Z,3.47
2019-02-24T17:11:06.978Z,3.74
2019-02-24T17:17:01.319Z,4.13
2019-02-24T17:22:49.353Z,3.33
2019-02-24T17:28:44.359Z,3.68
2019-02-24T17:34:39.365Z,3.49
2019-02-24T17:40:34.359Z,4.12
2019-02-24T17:46:29.383Z,3.57
2019-02-24T17:52:24.371Z,7.39
2019-02-24T17:58:19.431Z,5.27
2019-02-24T18:04:14.449Z,4.33
2019-02-24T18:10:09.404Z,4.46
2019-02-24T18:16:04.424Z,3.96
2019-02-24T18:21:59.502Z,3.4
2019-02-24T18:27:54.397Z,3.72
2019-02-24T18:33:49.421Z,4.35
2019-02-24T18:39:44.510Z,4.77
2019-02-24T18:45:39.451Z,4.41
2019-02-24T18:51:34.474Z,3.96
2019-02-24T18:57:29.422Z,3.93
2019-02-24T19:03:24.445Z,4.92
2019-02-24T19:09:19.486Z,4.32
2019-02-24T19:15:14.470Z,4.86
2019-02-24T19:21:09.443Z,4.16
2019-02-24T19:27:04.502Z,4.72
2019-02-24T19:32:59.472Z,5.6
2019-02-24T19:38:54.480Z,5.6
2019-02-24T19:44:49.469Z,5.83
2019-02-24T19:50:44.474Z,5.66
2019-02-24T19:56:39.468Z,5.79
2019-02-24T20:02:34.532Z,6.4
2019-02-24T20:08:29.532Z,6.03
2019-02-24T20:14:24.482Z,5.14
2019-02-24T20:20:19.489Z,6.03
2019-02-24T20:26:14.522Z,5.93
2019-02-24T20:32:09.521Z,5.87
2019-02-24T20:38:04.534Z,5.35
2019-02-24T20:43:59.512Z,4.99
2019-02-24T20:49:54.533Z,5.83
2019-02-24T20:55:49.544Z,5.67
2019-02-24T21:01:44.639Z,5.07
2019-02-24T21:07:39.562Z,4.88
2019-02-24T21:13:34.546Z,5.09
2019-02-24T21:19:29.564Z,5.07
2019-02-24T21:25:24.602Z,4.49
2019-02-24T21:31:19.545Z,5.92
2019-02-24T21:37:14.573Z,4.45
2019-02-24T21:43:09.575Z,6.29
2019-02-24T21:49:04.606Z,4.32
2019-02-24T21:54:59.609Z,5.22
2019-02-24T22:00:54.572Z,11
2019-02-24T22:06:49.591Z,12.1
2019-02-24T22:12:44.648Z,6.42
2019-02-24T22:18:39.636Z,6.46
2019-02-24T22:24:34.630Z,4.74
2019-02-24T22:30:29.617Z,4.4
2019-02-24T22:36:24.643Z,5.39
2019-02-24T22:42:19.615Z,4.33
2019-02-24T22:48:14.624Z,4.33
2019-02-24T22:54:09.625Z,4.89
2019-02-24T23:00:04.633Z,4.64
2019-02-24T23:05:59.646Z,4.22
2019-02-24T23:11:54.683Z,4.83
2019-02-24T23:17:49.650Z,4.15
2019-02-24T23:23:44.652Z,4.15
2019-02-24T23:29:39.659Z,4.97
2019-02-24T23:35:34.669Z,4.21
2019-02-24T23:41:29.682Z,4.73
2019-02-24T23:47:24.696Z,3.97
2019-02-24T23:53:19.696Z,4.43
2019-02-24T23:59:14.751Z,4.32
